Saint-Philippe-De-Neri, Canada
Current Conditions -  °F | °C
As of 11:53 PM on Friday 24 Oct 2014 (Local Time) from KFVE Reporting Station
Light Rain Light Rain  
Wind Chill: -1°   Ceiling: 2800
Heat Index:   Visibility: 7mi
Dew Point:   Wind: 10mph
Humidity: 93%   Direction: 340°NNW
Pressure: 29.68"   Gusts: NA
Location:  47.45°N, 69.88°W
Report Text: KFVE 250353Z AUTO 34009KT 7SM -RA BKN028 OVC033 03/02 A2968 RMK AO2 SLP055 P0000 T00280017
Loading
Personal Weather Stations






























Interactive Weather Map
Tropical Storm Tracking
New forecast layout! Learn more

10-Day Weather Forecast

Advertisements
Track Severe Weather on mobile